createdAt,value
2023-01-30T00:02:23.981Z,10.60
2023-01-30T00:04:53.664Z,10.30
2023-01-30T00:07:43.406Z,10.10
2023-01-30T00:10:14.247Z,13.90
2023-01-30T00:12:45.044Z,11.70
2023-01-30T00:15:14.485Z,14.80
2023-01-30T00:17:51.052Z,16.30
2023-01-30T00:20:21.894Z,18.60
2023-01-30T00:23:00.581Z,14.10
2023-01-30T00:25:32.701Z,19.90
2023-01-30T00:28:04.322Z,14.90
2023-01-30T00:30:33.405Z,16.60
2023-01-30T00:33:02.827Z,16.10
2023-01-30T00:35:31.694Z,27.90
2023-01-30T00:38:00.170Z,27.70
2023-01-30T00:40:29.610Z,28.20
2023-01-30T00:43:17.132Z,20.70
2023-01-30T00:46:05.406Z,11.20
2023-01-30T00:48:35.653Z,25.10
2023-01-30T00:51:04.708Z,31.50
2023-01-30T00:53:36.015Z,26.20
2023-01-30T00:56:06.471Z,19.90
2023-01-30T00:58:36.706Z,15.00
2023-01-30T01:01:07.829Z,15.30
2023-01-30T01:03:42.257Z,13.30
2023-01-30T01:06:12.885Z,13.50
2023-01-30T01:08:45.978Z,12.60
2023-01-30T01:11:25.514Z,13.10
2023-01-30T01:14:00.886Z,9.90
2023-01-30T01:16:33.790Z,12.60
2023-01-30T01:19:03.664Z,11.20
2023-01-30T01:21:36.778Z,15.10
2023-01-30T01:24:11.575Z,14.00
2023-01-30T01:26:42.454Z,15.80
2023-01-30T01:29:22.950Z,12.00
2023-01-30T01:31:54.153Z,14.20
2023-01-30T01:34:30.276Z,12.50
2023-01-30T01:36:59.671Z,12.70
2023-01-30T01:39:49.153Z,9.30
2023-01-30T01:42:18.660Z,12.80
2023-01-30T01:45:23.381Z,11.30
2023-01-30T01:48:02.777Z,11.40
2023-01-30T01:50:41.553Z,11.90
2023-01-30T01:53:11.764Z,14.50
2023-01-30T01:55:41.585Z,13.60
2023-01-30T01:58:19.748Z,14.30
2023-01-30T02:00:50.613Z,13.70
2023-01-30T02:03:23.810Z,13.20
2023-01-30T02:05:55.262Z,14.30
2023-01-30T02:08:55.035Z,20.50
2023-01-30T02:11:25.973Z,18.60
2023-01-30T02:13:55.391Z,14.40
2023-01-30T02:16:24.981Z,13.20
2023-01-30T02:18:54.706Z,9.90
2023-01-30T02:21:23.834Z,10.00
2023-01-30T02:24:20.727Z,13.30
2023-01-30T02:27:00.893Z,12.10
2023-01-30T02:29:47.028Z,16.00
2023-01-30T02:32:44.896Z,11.40
2023-01-30T02:35:41.524Z,11.90
2023-01-30T02:38:26.444Z,12.20
2023-01-30T02:41:10.269Z,10.70
2023-01-30T02:43:54.188Z,12.60
2023-01-30T02:46:46.998Z,13.70
2023-01-30T02:50:24.467Z,8.70
2023-01-30T02:52:59.265Z,13.60
2023-01-30T02:55:30.416Z,18.50
2023-01-30T02:57:59.604Z,25.30
2023-01-30T03:00:58.120Z,46.70
2023-01-30T03:03:48.753Z,35.70
2023-01-30T03:06:36.828Z,22.60
2023-01-30T03:09:16.096Z,37.10
2023-01-30T03:12:08.519Z,43.60
2023-01-30T03:14:47.740Z,40.10
2023-01-30T03:17:20.024Z,31.20
2023-01-30T03:19:51.702Z,15.30
2023-01-30T03:22:22.839Z,15.40
2023-01-30T03:24:55.080Z,18.10
2023-01-30T03:27:25.753Z,19.20
2023-01-30T03:29:55.148Z,21.60
2023-01-30T03:32:25.128Z,21.80
2023-01-30T03:34:54.443Z,20.20
2023-01-30T03:37:25.975Z,26.60
2023-01-30T03:39:55.497Z,22.60
2023-01-30T03:42:24.704Z,20.70
2023-01-30T03:44:55.343Z,25.50
2023-01-30T03:47:25.990Z,21.70
2023-01-30T03:49:58.309Z,18.60
2023-01-30T03:52:29.985Z,21.30
2023-01-30T03:55:01.127Z,19.50
2023-01-30T03:57:31.136Z,23.10
2023-01-30T04:00:01.353Z,24.00
2023-01-30T04:02:32.845Z,26.10
2023-01-30T04:05:02.826Z,20.00
2023-01-30T04:07:32.118Z,22.20
2023-01-30T04:10:01.128Z,23.50
2023-01-30T04:12:30.945Z,22.30
2023-01-30T04:15:01.248Z,25.40
2023-01-30T04:17:49.081Z,22.50
2023-01-30T04:20:37.225Z,29.10
2023-01-30T04:23:07.037Z,29.00
2023-01-30T04:25:36.963Z,22.50
2023-01-30T04:28:10.148Z,24.30
2023-01-30T04:30:41.165Z,24.10
2023-01-30T04:33:36.607Z,22.40
2023-01-30T04:36:09.409Z,21.90
2023-01-30T04:38:41.369Z,26.50
2023-01-30T04:41:11.969Z,30.20
2023-01-30T04:43:45.677Z,32.70
2023-01-30T04:46:22.849Z,25.50
2023-01-30T04:48:54.756Z,29.50
2023-01-30T04:51:25.640Z,41.70
2023-01-30T04:53:55.266Z,41.20
2023-01-30T04:56:28.011Z,67.80
2023-01-30T04:58:57.345Z,83.40
2023-01-30T05:01:32.405Z,94.90
2023-01-30T05:04:02.310Z,98.40
2023-01-30T05:06:31.897Z,72.00
2023-01-30T05:09:01.000Z,81.60
2023-01-30T05:11:31.348Z,47.70
2023-01-30T05:14:00.226Z,29.00
2023-01-30T05:16:31.801Z,26.00
2023-01-30T05:19:00.553Z,31.90
2023-01-30T05:21:30.185Z,35.80
2023-01-30T05:23:59.160Z,28.70
2023-01-30T05:26:27.999Z,30.20
2023-01-30T05:28:57.656Z,23.30
2023-01-30T05:31:26.498Z,28.90
2023-01-30T05:33:55.947Z,24.00
2023-01-30T05:36:25.165Z,26.90
2023-01-30T05:38:54.345Z,33.90
2023-01-30T05:41:23.198Z,25.50
2023-01-30T05:43:51.827Z,22.80
2023-01-30T05:46:21.351Z,22.20
2023-01-30T05:48:50.213Z,22.70
2023-01-30T05:51:20.842Z,21.20
2023-01-30T05:53:53.213Z,23.80
2023-01-30T05:56:23.957Z,30.10
2023-01-30T05:58:54.478Z,32.40
2023-01-30T06:01:26.848Z,31.60
2023-01-30T06:03:56.846Z,35.80
2023-01-30T06:06:26.074Z,34.00
2023-01-30T06:08:56.004Z,29.70
2023-01-30T06:11:25.090Z,30.00
2023-01-30T06:13:54.164Z,24.10
2023-01-30T06:16:22.895Z,27.30
2023-01-30T06:18:52.257Z,50.80
2023-01-30T06:21:23.218Z,61.00
2023-01-30T06:23:52.909Z,53.50
2023-01-30T06:26:22.976Z,50.60
2023-01-30T06:28:52.225Z,45.10
2023-01-30T06:31:20.774Z,31.10
2023-01-30T06:33:49.899Z,33.10
2023-01-30T06:36:19.507Z,32.10
2023-01-30T06:38:49.115Z,30.20
2023-01-30T06:41:18.935Z,31.80
2023-01-30T06:43:47.714Z,31.40
2023-01-30T06:46:16.987Z,29.10
2023-01-30T06:48:46.306Z,31.60
2023-01-30T06:51:15.013Z,76.70
2023-01-30T06:53:44.433Z,55.00
2023-01-30T06:56:13.297Z,40.70
2023-01-30T06:58:42.747Z,42.00
2023-01-30T07:01:12.710Z,46.20
2023-01-30T07:03:41.401Z,35.90
2023-01-30T07:22:28.637Z,24.40
2023-01-30T07:25:00.102Z,21.00
2023-01-30T07:27:27.861Z,19.70
2023-01-30T07:29:55.809Z,29.00
2023-01-30T07:32:23.880Z,28.40
2023-01-30T07:34:52.469Z,19.60
2023-01-30T07:37:21.768Z,21.50
2023-01-30T07:39:49.219Z,17.50
2023-01-30T07:42:17.603Z,26.10
2023-01-30T07:44:45.056Z,28.10
2023-01-30T07:47:13.262Z,34.20
2023-01-30T07:49:40.380Z,30.00
2023-01-30T07:52:08.045Z,22.70
2023-01-30T07:54:35.501Z,28.80
2023-01-30T07:57:02.847Z,37.90
2023-01-30T07:59:31.581Z,31.10
2023-01-30T08:02:09.471Z,29.90
2023-01-30T08:05:44.566Z,32.30
2023-01-30T08:08:13.584Z,35.10
2023-01-30T08:10:42.276Z,42.60
2023-01-30T08:13:09.519Z,32.00
2023-01-30T08:15:37.085Z,34.50
2023-01-30T08:18:04.837Z,27.80
2023-01-30T08:20:32.836Z,17.20
2023-01-30T08:23:01.804Z,20.40
2023-01-30T08:25:32.226Z,64.80
2023-01-30T08:28:00.208Z,19.40
2023-01-30T08:30:27.922Z,15.60
2023-01-30T08:32:55.518Z,20.60
2023-01-30T08:35:22.771Z,20.20
2023-01-30T08:37:50.130Z,26.10
2023-01-30T08:40:17.931Z,24.60
2023-01-30T08:42:46.906Z,22.00
2023-01-30T08:45:15.494Z,65.70
2023-01-30T08:47:43.544Z,20.90
2023-01-30T08:50:13.145Z,18.30
2023-01-30T08:52:41.009Z,24.40
2023-01-30T08:55:08.983Z,17.30
2023-01-30T08:57:40.230Z,16.60
2023-01-30T09:00:09.114Z,14.80
2023-01-30T09:02:36.692Z,18.90
2023-01-30T09:05:08.535Z,19.80
2023-01-30T09:07:35.889Z,31.10
2023-01-30T09:10:04.480Z,25.70
2023-01-30T09:12:31.839Z,20.90
2023-01-30T09:14:59.947Z,16.40
2023-01-30T09:17:27.046Z,17.40
2023-01-30T09:19:54.307Z,15.40
2023-01-30T09:22:22.199Z,16.70
2023-01-30T09:24:59.707Z,19.10
2023-01-30T09:27:44.316Z,24.20
2023-01-30T09:30:12.079Z,25.10
2023-01-30T09:32:41.893Z,21.30
2023-01-30T09:35:09.249Z,28.60
2023-01-30T09:37:36.614Z,43.90
2023-01-30T09:40:04.680Z,23.40
2023-01-30T09:42:53.070Z,22.80
2023-01-30T09:45:35.732Z,89.00
2023-01-30T09:48:18.238Z,25.40
2023-01-30T09:50:53.857Z,17.70
2023-01-30T09:53:30.765Z,17.50
2023-01-30T09:56:03.831Z,18.20
2023-01-30T09:58:55.707Z,35.00
2023-01-30T10:01:41.892Z,19.10
2023-01-30T10:04:23.510Z,15.90
2023-01-30T10:07:06.710Z,14.10
2023-01-30T10:12:17.590Z,70.90
2023-01-30T10:15:09.622Z,45.20
2023-01-30T10:17:51.001Z,29.30
2023-01-30T10:20:31.256Z,21.70
2023-01-30T10:23:04.858Z,23.70
2023-01-30T10:25:46.349Z,19.70
2023-01-30T10:28:29.327Z,16.10
2023-01-30T10:31:23.920Z,11.50
2023-01-30T10:33:55.305Z,12.60
2023-01-30T10:36:40.312Z,13.90
2023-01-30T10:39:56.170Z,13.70
2023-01-30T10:42:29.253Z,13.30
2023-01-30T10:45:03.783Z,36.70
2023-01-30T10:47:46.237Z,34.10
2023-01-30T10:50:17.007Z,12.80
2023-01-30T10:53:13.461Z,11.70
2023-01-30T10:55:47.406Z,13.40
2023-01-30T10:58:23.024Z,11.10
2023-01-30T11:00:59.383Z,22.60
2023-01-30T11:04:01.447Z,15.60
2023-01-30T11:06:32.489Z,20.70
2023-01-30T11:09:00.252Z,14.00
2023-01-30T11:11:27.554Z,12.40
2023-01-30T11:14:09.518Z,13.80
2023-01-30T11:16:51.607Z,9.90
2023-01-30T11:19:23.971Z,9.70
2023-01-30T11:21:53.273Z,8.70
2023-01-30T11:24:23.221Z,12.40
2023-01-30T11:26:52.116Z,12.50
2023-01-30T11:29:32.786Z,10.30
2023-01-30T11:32:05.853Z,9.30
2023-01-30T11:34:33.710Z,7.70
2023-01-30T11:37:14.476Z,22.00
2023-01-30T11:39:50.980Z,13.20
2023-01-30T11:42:19.317Z,15.70
2023-01-30T11:44:46.567Z,9.50
2023-01-30T11:47:19.350Z,15.60
2023-01-30T11:50:01.946Z,14.10
2023-01-30T11:52:37.405Z,14.80
2023-01-30T11:55:08.073Z,11.00
2023-01-30T11:57:57.922Z,15.90
2023-01-30T12:00:43.809Z,15.30
2023-01-30T12:03:13.098Z,16.40
2023-01-30T12:05:42.618Z,14.80
2023-01-30T12:08:31.293Z,24.40
2023-01-30T12:11:28.424Z,22.30
2023-01-30T12:20:27.636Z,17.20
2023-01-30T12:23:08.346Z,21.10
2023-01-30T12:25:58.494Z,20.20
2023-01-30T12:28:42.284Z,21.70
2023-01-30T12:31:37.138Z,20.80
2023-01-30T12:34:05.199Z,18.20
2023-01-30T12:36:56.449Z,21.00
2023-01-30T12:39:41.130Z,22.60
2023-01-30T12:42:30.762Z,20.80
2023-01-30T12:45:10.420Z,20.50
2023-01-30T12:48:06.183Z,28.70
2023-01-30T12:51:02.789Z,24.90
2023-01-30T12:53:50.544Z,20.60
2023-01-30T12:56:40.867Z,20.80
2023-01-30T12:59:29.345Z,19.50
2023-01-30T13:02:36.873Z,22.80
2023-01-30T13:05:31.558Z,16.50
2023-01-30T13:07:58.800Z,15.70
2023-01-30T13:10:51.044Z,20.40
2023-01-30T13:16:26.863Z,15.10
2023-01-30T13:19:04.084Z,15.10
2023-01-30T13:21:39.381Z,20.70
2023-01-30T13:24:15.481Z,15.00
2023-01-30T13:26:43.388Z,16.70
2023-01-30T13:29:11.135Z,16.00
2023-01-30T13:31:39.527Z,14.10
2023-01-30T13:34:25.506Z,12.30
2023-01-30T13:37:14.245Z,12.30
2023-01-30T13:39:47.840Z,24.30
2023-01-30T13:42:39.143Z,45.30
2023-01-30T13:45:18.243Z,24.00
2023-01-30T13:48:02.246Z,12.70
2023-01-30T13:50:48.925Z,10.50
2023-01-30T13:53:39.452Z,10.50
2023-01-30T13:56:39.716Z,10.40
2023-01-30T13:59:23.403Z,13.00
2023-01-30T14:02:06.862Z,15.50
2023-01-30T14:04:42.055Z,17.00
2023-01-30T14:07:29.693Z,20.60
2023-01-30T14:10:09.381Z,20.70
2023-01-30T14:45:53.391Z,15.60
2023-01-30T14:48:34.036Z,18.50
2023-01-30T14:51:33.069Z,16.80
2023-01-30T14:54:14.264Z,14.00
2023-01-30T14:56:49.739Z,18.20
2023-01-30T14:59:16.810Z,17.30
2023-01-30T15:01:54.504Z,18.40
2023-01-30T15:04:22.077Z,15.40
2023-01-30T15:06:50.255Z,16.60
2023-01-30T15:09:22.421Z,17.50
2023-01-30T15:12:05.083Z,20.60
2023-01-30T15:14:55.079Z,18.70
2023-01-30T15:17:29.437Z,19.70
2023-01-30T15:20:12.814Z,22.00
2023-01-30T15:25:58.370Z,17.60
2023-01-30T15:28:45.731Z,22.20
2023-01-30T15:31:25.325Z,18.70
2023-01-30T15:34:00.513Z,14.60
2023-01-30T15:36:34.281Z,17.60
2023-01-30T15:39:05.330Z,15.20
2023-01-30T15:41:39.008Z,20.30
2023-01-30T15:44:14.173Z,21.20
2023-01-30T15:47:03.171Z,18.70
2023-01-30T15:50:09.216Z,18.80
2023-01-30T15:52:44.729Z,17.90
2023-01-30T15:55:33.278Z,24.80
2023-01-30T15:58:14.505Z,22.40
2023-01-30T16:00:47.579Z,26.20
2023-01-30T16:03:22.497Z,25.20
2023-01-30T16:05:52.266Z,26.10
2023-01-30T16:08:24.760Z,26.50
2023-01-30T16:13:22.925Z,22.60
2023-01-30T16:15:50.516Z,25.90
2023-01-30T16:18:21.398Z,21.40
2023-01-30T16:21:11.386Z,21.80
2023-01-30T16:23:51.567Z,25.50
2023-01-30T16:26:23.277Z,22.70
2023-01-30T16:28:51.622Z,24.40
2023-01-30T16:31:19.067Z,21.20
2023-01-30T16:33:50.914Z,23.30
2023-01-30T16:36:21.273Z,19.20
2023-01-30T16:38:52.619Z,20.50
2023-01-30T16:41:39.022Z,24.80
2023-01-30T16:44:22.074Z,21.20
2023-01-30T16:47:04.962Z,21.80
2023-01-30T16:52:05.706Z,24.30
2023-01-30T16:54:34.831Z,28.90
2023-01-30T16:57:03.032Z,25.60
2023-01-30T16:59:33.404Z,25.50
2023-01-30T17:02:02.393Z,29.90
2023-01-30T17:04:33.337Z,31.90
2023-01-30T17:07:03.711Z,29.90
2023-01-30T17:09:45.507Z,28.40
2023-01-30T17:12:25.352Z,31.50
2023-01-30T17:15:17.316Z,32.80
2023-01-30T17:17:47.202Z,29.70
2023-01-30T17:20:18.245Z,33.50
2023-01-30T17:22:47.174Z,29.20
2023-01-30T17:25:18.558Z,31.00
2023-01-30T17:27:46.040Z,29.80
2023-01-30T17:30:17.274Z,27.90
2023-01-30T17:32:44.517Z,27.10
2023-01-30T17:35:12.048Z,24.90
2023-01-30T17:37:41.849Z,25.70
2023-01-30T17:40:20.533Z,26.50
2023-01-30T17:42:48.203Z,21.90
2023-01-30T17:45:15.752Z,24.70
2023-01-30T17:47:43.082Z,26.20
2023-01-30T17:50:14.165Z,25.50
2023-01-30T17:52:41.868Z,26.60
2023-01-30T17:55:13.208Z,24.00
2023-01-30T17:57:43.017Z,22.10
2023-01-30T18:00:20.691Z,34.40
2023-01-30T18:02:49.017Z,28.90
2023-01-30T18:05:21.965Z,29.40
2023-01-30T18:07:49.774Z,28.80
2023-01-30T18:10:18.911Z,26.40
2023-01-30T18:12:46.911Z,24.40
2023-01-30T18:15:15.078Z,30.30
2023-01-30T18:17:46.819Z,24.10
2023-01-30T18:20:17.086Z,25.50
2023-01-30T18:22:44.715Z,26.00
2023-01-30T18:25:15.142Z,31.70
2023-01-30T18:27:43.622Z,31.30
2023-01-30T18:30:13.112Z,31.00
2023-01-30T18:32:52.047Z,25.10
2023-01-30T18:35:22.223Z,23.50
2023-01-30T18:37:49.869Z,24.00
2023-01-30T18:40:19.504Z,21.80
2023-01-30T18:42:47.069Z,24.00
2023-01-30T18:45:14.280Z,22.40
2023-01-30T18:47:42.332Z,22.70
2023-01-30T18:50:10.548Z,23.00
2023-01-30T18:52:37.873Z,24.10
2023-01-30T18:55:06.253Z,17.90
2023-01-30T18:57:34.017Z,19.80
2023-01-30T19:00:01.091Z,22.00
2023-01-30T19:02:32.501Z,22.30
2023-01-30T19:04:59.842Z,18.80
2023-01-30T19:07:27.094Z,18.90
2023-01-30T19:09:54.652Z,20.30
2023-01-30T19:12:42.256Z,20.60
2023-01-30T19:15:10.271Z,26.30
2023-01-30T19:17:39.348Z,20.90
2023-01-30T19:20:10.485Z,19.50
2023-01-30T19:22:38.999Z,17.50
2023-01-30T19:25:09.466Z,18.10
2023-01-30T19:27:56.906Z,17.20
2023-01-30T19:30:24.178Z,13.90
2023-01-30T19:32:53.997Z,14.70
2023-01-30T19:35:21.324Z,15.70
2023-01-30T19:37:49.012Z,14.20
2023-01-30T19:40:16.474Z,17.50
2023-01-30T19:42:44.704Z,17.50
2023-01-30T19:45:12.006Z,16.80
2023-01-30T19:47:44.162Z,15.30
2023-01-30T19:50:11.724Z,16.20
2023-01-30T19:52:40.402Z,13.70
2023-01-30T19:55:08.472Z,12.90
2023-01-30T19:57:35.679Z,12.20
2023-01-30T20:00:04.699Z,12.60
2023-01-30T20:02:31.997Z,14.10
2023-01-30T20:04:59.131Z,14.40
2023-01-30T20:07:26.439Z,11.90
2023-01-30T20:09:53.932Z,14.80
2023-01-30T20:12:21.811Z,10.50
2023-01-30T20:14:49.108Z,11.50
2023-01-30T20:17:16.207Z,11.00
2023-01-30T20:19:43.720Z,11.90
2023-01-30T20:22:11.004Z,11.30
2023-01-30T20:24:39.591Z,13.30
2023-01-30T20:27:06.992Z,11.20
2023-01-30T20:29:34.083Z,14.20
2023-01-30T20:32:03.682Z,14.60
2023-01-30T20:34:31.563Z,11.70
2023-01-30T20:36:59.611Z,13.70
2023-01-30T20:39:26.709Z,14.30
2023-01-30T20:41:53.851Z,11.70
2023-01-30T20:44:21.405Z,14.20
2023-01-30T20:46:49.276Z,14.30
2023-01-30T20:49:18.823Z,13.10
2023-01-30T20:51:46.507Z,10.70
2023-01-30T20:54:14.129Z,11.90
2023-01-30T20:56:48.906Z,15.00
2023-01-30T20:59:17.935Z,16.90
2023-01-30T21:01:45.381Z,12.80
2023-01-30T21:04:14.152Z,16.20
2023-01-30T21:06:45.432Z,12.50
2023-01-30T21:09:20.272Z,11.70
2023-01-30T21:11:49.044Z,13.20
2023-01-30T21:14:17.022Z,13.10
2023-01-30T21:16:44.628Z,13.90
2023-01-30T21:19:16.370Z,13.10
2023-01-30T21:21:52.962Z,14.10
2023-01-30T21:24:25.601Z,16.20
2023-01-30T21:26:53.192Z,12.30
2023-01-30T21:29:22.311Z,10.80
2023-01-30T21:31:49.702Z,11.60
2023-01-30T21:34:17.147Z,10.00
2023-01-30T21:37:04.240Z,10.70
2023-01-30T21:39:53.133Z,11.30
2023-01-30T21:42:39.387Z,12.20
2023-01-30T21:45:07.117Z,11.40
2023-01-30T21:47:34.452Z,16.60
2023-01-30T21:50:01.718Z,10.40
2023-01-30T21:52:32.204Z,11.90
2023-01-30T21:54:59.736Z,13.70
2023-01-30T21:57:27.213Z,10.30
2023-01-30T21:59:54.337Z,11.40
2023-01-30T22:02:21.489Z,10.80
2023-01-30T22:04:48.707Z,14.30
2023-01-30T22:07:15.755Z,11.60
2023-01-30T22:09:43.027Z,9.50
2023-01-30T22:12:10.567Z,12.10
2023-01-30T22:14:38.013Z,11.00
2023-01-30T22:17:05.857Z,11.20
